Time;durP1;ratioP1;P1;durP2;ratioP2;P2;SDS_P1;SDS_P2;PMS_P1;PMS_P2;Temp;Humidity;BMP_temperature;BMP_pressure;BME280_temperature;BME280_humidity;BME280_pressure;Samples;Min_cycle;Max_cycle;Signal;HPM_P1;HPM_P2
2020/12/20 00:02:54;;;;;;;9.32;5.28;;;25.80;90.50;;;;;;5620310;23;20064;-94
2020/12/20 00:08:27;;;;;;;;;;;;;;;;;;;;;
2020/12/20 00:10:54;;;;;;;7.88;4.47;;;25.70;90.60;;;;;;5028957;28;20037;-92
2020/12/20 00:13:21;;;;;;;9.38;3.63;;;25.60;90.70;;;;;;5031057;28;20017;-96
2020/12/20 00:16:26;;;;;;;6.03;2.80;;;25.60;90.50;;;;;;5020832;28;20010;-92
2020/12/20 00:22:28;;;;;;;3.30;2.20;;;25.50;90.30;;;;;;5004061;26;20065;-90
2020/12/20 00:25:37;;;;;;;4.13;2.72;;;25.50;90.10;;;;;;5025385;28;20060;-92
2020/12/20 00:28:13;;;;;;;6.15;3.30;;;25.50;90.20;;;;;;5034050;28;20033;-91
2020/12/20 00:30:46;;;;;;;5.43;4.07;;;25.50;90.20;;;;;;5036490;28;20022;-92
2020/12/20 00:33:30;;;;;;;7.40;4.53;;;25.50;90.00;;;;;;5033258;28;20030;-91
2020/12/20 00:35:57;;;;;;;6.13;4.53;;;25.50;90.40;;;;;;5031838;28;20017;-90
2020/12/20 00:38:36;;;;;;;12.95;5.50;;;25.50;90.00;;;;;;5036309;28;20094;-90
2020/12/20 00:41:14;;;;;;;8.35;4.50;;;25.60;90.00;;;;;;4953998;28;20025;-89
2020/12/20 00:43:40;;;;;;;7.50;4.32;;;25.60;90.30;;;;;;5014429;28;20053;-89
2020/12/20 00:46:56;;;;;;;8.43;5.57;;;25.50;90.30;;;;;;5029046;28;20104;-90
2020/12/20 00:49:56;;;;;;;10.93;6.82;;;25.50;90.10;;;;;;5035191;28;20055;-91
2020/12/20 00:53:05;;;;;;;11.63;6.50;;;25.50;90.40;;;;;;4957226;29;20090;-91
2020/12/20 00:58:54;;;;;;;5.63;3.13;;;25.60;90.00;;;;;;5040005;28;20052;-92
2020/12/20 01:04:00;;;;;;;5.78;4.35;;;25.50;89.80;;;;;;5251891;23;20057;-91
2020/12/20 01:06:30;;;;;;;4.63;2.70;;;25.40;89.60;;;;;;5031261;28;20040;-92
2020/12/20 01:09:23;;;;;;;2.20;1.60;;;25.40;89.20;;;;;;4995101;28;20041;-91
2020/12/20 01:12:11;;;;;;;3.35;1.90;;;25.40;89.10;;;;;;4970791;29;20030;-90
2020/12/20 01:14:38;;;;;;;3.00;1.55;;;25.30;89.30;;;;;;4966829;29;20058;-92
2020/12/20 01:17:08;;;;;;;3.78;1.70;;;25.30;89.10;;;;;;4936910;29;20035;-92
2020/12/20 01:23:03;;;;;;;3.67;1.80;;;25.20;89.00;;;;;;4919586;29;20445;-89
2020/12/20 01:25:32;;;;;;;1.63;1.45;;;25.20;89.10;;;;;;4912106;29;20046;-92
2020/12/20 01:28:02;;;;;;;3.40;3.10;;;25.20;88.90;;;;;;4896309;29;20104;-91
2020/12/20 01:31:34;;;;;;;3.73;2.63;;;25.10;89.00;;;;;;4927699;29;20036;-92
2020/12/20 01:34:09;;;;;;;1.88;1.40;;;25.10;89.00;;;;;;4911897;29;20072;-91
2020/12/20 01:36:47;;;;;;;4.45;1.80;;;25.10;87.70;;;;;;4933898;29;20035;-93
2020/12/20 01:39:18;;;;;;;3.83;1.40;;;25.00;88.00;;;;;;4932868;29;20115;-94
2020/12/20 01:42:02;;;;;;;2.55;1.50;;;25.00;87.50;;;;;;4934516;29;20264;-95
2020/12/20 01:44:31;;;;;;;4.97;1.90;;;25.00;87.00;;;;;;4992175;28;20042;-94
2020/12/20 01:47:04;;;;;;;3.20;1.80;;;24.90;86.90;;;;;;4973317;28;20045;-93
2020/12/20 01:49:37;;;;;;;3.78;1.30;;;24.90;87.00;;;;;;4990200;28;20066;-96
2020/12/20 01:52:08;;;;;;;3.15;1.33;;;24.90;87.30;;;;;;4973370;28;20029;-95
2020/12/20 01:54:38;;;;;;;1.88;1.30;;;24.90;86.90;;;;;;4972461;28;20126;-92
2020/12/20 01:57:25;;;;;;;1.80;1.35;;;24.90;86.70;;;;;;4990687;28;20037;-94
2020/12/20 01:59:53;;;;;;;1.55;1.08;;;24.90;86.00;;;;;;4994904;28;20348;-91
2020/12/20 02:02:21;;;;;;;2.53;1.65;;;24.80;86.20;;;;;;4996966;28;20046;-93
2020/12/20 02:04:51;;;;;;;2.30;1.10;;;24.80;85.80;;;;;;5031699;28;20052;-92
2020/12/20 02:07:18;;;;;;;2.83;1.35;;;24.80;85.30;;;;;;5011735;28;20091;-90
2020/12/20 02:10:11;;;;;;;2.45;1.30;;;24.70;85.70;;;;;;5012325;28;20022;-92
2020/12/20 02:12:41;;;;;;;2.35;1.20;;;24.70;85.80;;;;;;5012804;28;20106;-92
2020/12/20 02:15:21;;;;;;;2.22;1.00;;;24.60;85.60;;;;;;5013967;28;20022;-90
2020/12/20 02:18:48;;;;;;;1.92;1.10;;;24.60;86.00;;;;;;5034261;28;20034;-91
2020/12/20 02:21:25;;;;;;;2.50;0.95;;;24.60;85.30;;;;;;4938867;28;20347;-91
2020/12/20 02:23:53;;;;;;;2.85;1.08;;;24.60;85.70;;;;;;4973179;28;20030;-90
2020/12/20 02:26:26;;;;;;;2.53;1.42;;;24.60;85.90;;;;;;4970197;28;20035;-92
2020/12/20 02:29:03;;;;;;;2.80;1.23;;;24.50;85.90;;;;;;4971456;28;20026;-92
2020/12/20 02:31:35;;;;;;;1.63;1.00;;;24.50;86.00;;;;;;4989790;28;20027;-89
2020/12/20 02:34:06;;;;;;;1.75;0.95;;;24.50;86.00;;;;;;4937530;29;20200;-92
2020/12/20 02:36:33;;;;;;;5.55;1.48;;;24.40;85.90;;;;;;4968540;29;20035;-90
2020/12/20 02:39:01;;;;;;;1.95;1.25;;;24.40;86.30;;;;;;4951423;29;20047;-90
2020/12/20 02:41:29;;;;;;;6.78;3.65;;;24.30;86.70;;;;;;4952283;29;20251;-89
2020/12/20 02:43:58;;;;;;;7.15;3.60;;;24.30;86.80;;;;;;4951424;29;20106;-91
2020/12/20 02:46:26;;;;;;;7.20;5.05;;;24.30;86.70;;;;;;4952018;29;20145;-89
2020/12/20 02:48:53;;;;;;;11.45;5.78;;;24.20;87.10;;;;;;4969191;29;20030;-91
2020/12/20 02:51:21;;;;;;;6.90;4.82;;;24.20;87.20;;;;;;4971208;28;20026;-91
2020/12/20 02:53:48;;;;;;;13.00;7.00;;;24.20;87.20;;;;;;4955975;28;20191;-90
2020/12/20 02:56:22;;;;;;;11.43;6.82;;;24.20;87.80;;;;;;4990361;28;20031;-90
2020/12/20 02:58:50;;;;;;;9.75;6.00;;;24.20;88.00;;;;;;4973650;28;20031;-91
2020/12/20 03:01:17;;;;;;;7.38;4.47;;;24.20;88.40;;;;;;4972802;28;20027;-91
2020/12/20 03:03:44;;;;;;;6.82;3.83;;;24.10;89.30;;;;;;4973137;28;20054;-88
2020/12/20 03:06:11;;;;;;;7.85;4.07;;;24.10;89.00;;;;;;4972579;28;20058;-89
2020/12/20 03:09:34;;;;;;;8.23;3.70;;;24.10;89.10;;;;;;4988425;28;20026;-91
2020/12/20 03:14:49;;;;;;;4.80;3.00;;;23.90;89.10;;;;;;5121582;23;20053;-89
2020/12/20 03:17:57;;;;;;;4.30;2.72;;;23.90;89.60;;;;;;5037846;28;20017;-89
2020/12/20 03:21:59;;;;;;;2.35;1.63;;;23.90;89.10;;;;;;5037115;28;20022;-91
2020/12/20 03:24:36;;;;;;;3.63;1.88;;;24.00;89.30;;;;;;5054011;28;20043;-92
2020/12/20 03:27:06;;;;;;;3.60;1.42;;;23.90;89.60;;;;;;5188508;23;20118;-91
2020/12/20 03:29:32;;;;;;;2.97;1.20;;;23.90;89.20;;;;;;5035098;28;20022;-91
2020/12/20 03:32:02;;;;;;;2.38;1.42;;;23.90;89.20;;;;;;5032375;28;20032;-91
2020/12/20 03:34:40;;;;;;;1.63;1.13;;;23.90;89.30;;;;;;5189123;23;20048;-93
2020/12/20 03:37:24;;;;;;;3.50;1.23;;;24.00;89.20;;;;;;5073216;28;20032;-88
2020/12/20 03:39:50;;;;;;;1.27;1.10;;;24.00;89.50;;;;;;5059346;28;20092;-89
2020/12/20 03:42:17;;;;;;;2.25;1.30;;;24.00;89.40;;;;;;5278446;22;20079;-89
2020/12/20 03:44:50;;;;;;;3.42;1.60;;;24.10;89.50;;;;;;5066810;28;20028;-90
2020/12/20 03:47:17;;;;;;;1.50;1.20;;;24.10;88.90;;;;;;5065523;28;20025;-88
2020/12/20 03:49:45;;;;;;;2.00;1.05;;;24.20;88.80;;;;;;5066233;28;20029;-89
2020/12/20 03:52:16;;;;;;;3.35;1.13;;;24.20;88.60;;;;;;5047862;28;20024;-90
2020/12/20 03:54:55;;;;;;;3.33;1.50;;;24.20;88.40;;;;;;5071789;28;20050;-92
2020/12/20 03:57:37;;;;;;;1.67;1.17;;;24.20;89.00;;;;;;5086300;28;20048;-91
2020/12/20 04:00:22;;;;;;;2.72;1.60;;;24.20;88.90;;;;;;5070912;28;20316;-92
2020/12/20 04:02:52;;;;;;;2.40;1.40;;;24.20;89.10;;;;;;5031502;28;20041;-91
2020/12/20 04:05:20;;;;;;;2.47;0.95;;;24.20;88.90;;;;;;5008341;28;20060;-91
2020/12/20 04:07:46;;;;;;;1.65;1.15;;;24.30;88.50;;;;;;5007777;28;20029;-91
2020/12/20 04:10:15;;;;;;;3.10;1.25;;;24.40;88.70;;;;;;5007843;28;20029;-90
2020/12/20 04:12:42;;;;;;;2.25;1.33;;;24.40;89.00;;;;;;5010110;28;20349;-89
2020/12/20 04:15:08;;;;;;;3.03;1.30;;;24.40;88.70;;;;;;5024586;28;20088;-90
2020/12/20 04:17:35;;;;;;;1.77;1.08;;;24.40;88.30;;;;;;5007749;28;20022;-91
2020/12/20 04:20:02;;;;;;;3.63;1.50;;;24.40;88.40;;;;;;5008241;28;20159;-91
2020/12/20 04:22:28;;;;;;;1.25;1.13;;;24.50;89.50;;;;;;5025280;28;20026;-90
2020/12/20 04:24:55;;;;;;;2.63;1.48;;;24.40;89.10;;;;;;5008000;28;20305;-91
2020/12/20 04:27:22;;;;;;;2.55;1.10;;;24.40;89.10;;;;;;5008180;28;20037;-90
2020/12/20 04:29:48;;;;;;;2.22;1.20;;;24.30;89.40;;;;;;5008102;28;20029;-91
2020/12/20 04:32:17;;;;;;;1.80;1.00;;;24.30;89.20;;;;;;5008144;28;20056;-91
2020/12/20 04:34:44;;;;;;;3.53;1.05;;;24.30;89.20;;;;;;5087041;28;20040;-90
2020/12/20 04:37:14;;;;;;;1.40;0.90;;;24.40;89.20;;;;;;5067601;28;20020;-92
2020/12/20 04:39:40;;;;;;;2.55;1.50;;;24.30;88.80;;;;;;5067304;28;20050;-92
2020/12/20 04:42:07;;;;;;;1.60;1.20;;;24.40;88.70;;;;;;5067396;28;20071;-91
2020/12/20 04:44:35;;;;;;;6.75;1.80;;;24.40;88.50;;;;;;5068656;28;20031;-91
2020/12/20 04:47:03;;;;;;;3.08;1.55;;;24.40;88.20;;;;;;5087036;28;20020;-92
2020/12/20 04:49:30;;;;;;;2.05;1.30;;;24.50;87.90;;;;;;5068236;28;20032;-90
2020/12/20 04:51:59;;;;;;;4.60;1.35;;;24.50;88.20;;;;;;5068658;28;20091;-91
2020/12/20 04:54:26;;;;;;;2.60;1.30;;;24.50;88.00;;;;;;5068152;28;20362;-90
2020/12/20 04:56:53;;;;;;;2.03;1.23;;;24.40;88.40;;;;;;5084552;28;20036;-91
2020/12/20 04:59:21;;;;;;;2.25;0.98;;;24.50;88.40;;;;;;5067851;28;20032;-91
2020/12/20 05:01:48;;;;;;;4.30;1.00;;;24.50;88.50;;;;;;5068682;28;20024;-91
2020/12/20 05:04:14;;;;;;;2.25;1.08;;;24.40;88.60;;;;;;5067870;28;20028;-91
2020/12/20 05:06:41;;;;;;;1.30;0.90;;;24.40;88.40;;;;;;5066210;28;20062;-92
2020/12/20 05:09:09;;;;;;;1.48;1.02;;;24.40;88.90;;;;;;5067226;28;20054;-91
2020/12/20 05:11:46;;;;;;;1.25;0.98;;;24.40;88.50;;;;;;5066823;28;20012;-92
2020/12/20 05:14:15;;;;;;;3.00;1.10;;;24.50;87.80;;;;;;5067593;28;20024;-92
2020/12/20 05:16:42;;;;;;;3.55;1.08;;;24.50;87.30;;;;;;5064686;28;20024;-92
2020/12/20 05:19:15;;;;;;;3.38;1.83;;;24.50;87.50;;;;;;5077671;28;20044;-93
2020/12/20 05:21:46;;;;;;;1.10;0.82;;;24.50;87.60;;;;;;5095805;28;20040;-93
2020/12/20 05:24:29;;;;;;;2.70;0.98;;;24.50;87.60;;;;;;5079202;28;20029;-92
2020/12/20 05:26:56;;;;;;;1.20;0.77;;;24.50;87.40;;;;;;5078180;28;20032;-93
2020/12/20 05:29:28;;;;;;;1.48;0.75;;;24.50;87.20;;;;;;5080374;28;20020;-91
2020/12/20 05:31:55;;;;;;;1.52;0.98;;;24.50;87.60;;;;;;5096987;28;20017;-94
2020/12/20 05:34:28;;;;;;;4.38;1.15;;;24.50;87.60;;;;;;5078936;28;20296;-92
2020/12/20 05:37:11;;;;;;;3.25;1.25;;;24.50;87.50;;;;;;5076784;28;20046;-92
2020/12/20 05:39:38;;;;;;;2.45;0.90;;;24.40;87.80;;;;;;5061742;28;20036;-92
2020/12/20 05:42:10;;;;;;;3.25;0.90;;;24.40;87.00;;;;;;5070158;28;20151;-92
2020/12/20 05:44:39;;;;;;;1.00;0.90;;;24.40;86.90;;;;;;5067420;28;20025;-92
2020/12/20 05:47:06;;;;;;;1.77;0.80;;;24.30;86.90;;;;;;5067291;28;20078;-93
2020/12/20 05:49:38;;;;;;;2.00;0.80;;;24.30;86.50;;;;;;5067210;28;20048;-92
2020/12/20 05:52:04;;;;;;;1.67;0.85;;;24.30;86.70;;;;;;5084500;28;20017;-92
2020/12/20 05:54:38;;;;;;;6.60;0.90;;;24.30;86.70;;;;;;5067047;28;20331;-92
2020/12/20 05:57:12;;;;;;;3.85;1.00;;;24.20;86.60;;;;;;5066274;28;20028;-92
2020/12/20 05:59:40;;;;;;;1.23;0.80;;;24.20;86.60;;;;;;5066510;28;20188;-91
2020/12/20 06:02:11;;;;;;;1.65;0.98;;;24.20;86.30;;;;;;5084162;28;20075;-92
2020/12/20 06:04:40;;;;;;;1.40;0.80;;;24.20;86.80;;;;;;5066874;28;20363;-91
2020/12/20 06:07:11;;;;;;;2.92;0.80;;;24.20;87.40;;;;;;5066231;28;20020;-92
2020/12/20 06:09:54;;;;;;;3.45;1.00;;;24.20;87.10;;;;;;5083923;28;20017;-91
2020/12/20 06:12:23;;;;;;;2.67;0.90;;;24.10;87.60;;;;;;5066920;28;20023;-91
2020/12/20 06:14:52;;;;;;;1.67;1.20;;;24.00;87.60;;;;;;5065988;28;20048;-92
2020/12/20 06:17:23;;;;;;;1.00;0.60;;;24.00;87.70;;;;;;5084074;28;20096;-90
2020/12/20 06:20:01;;;;;;;3.03;1.00;;;23.90;87.90;;;;;;5066684;28;20033;-92
2020/12/20 06:22:34;;;;;;;1.95;0.90;;;23.90;87.70;;;;;;5069107;28;20021;-91
2020/12/20 06:25:06;;;;;;;0.98;0.70;;;23.90;87.60;;;;;;5070376;28;20093;-92
2020/12/20 06:27:35;;;;;;;1.33;0.65;;;23.90;87.60;;;;;;5071785;28;20248;-91
2020/12/20 06:30:07;;;;;;;0.68;0.57;;;23.80;87.50;;;;;;5069976;28;20059;-91
2020/12/20 06:32:42;;;;;;;3.90;0.80;;;23.80;87.20;;;;;;5010683;28;20278;-91
2020/12/20 06:35:24;;;;;;;1.02;0.70;;;23.80;86.90;;;;;;5025970;28;20392;-91
2020/12/20 06:37:51;;;;;;;1.95;0.70;;;23.80;86.90;;;;;;5026365;28;20345;-92
2020/12/20 06:40:42;;;;;;;0.90;0.63;;;23.80;86.70;;;;;;5026044;28;20042;-91
2020/12/20 06:43:09;;;;;;;5.50;1.10;;;23.80;87.10;;;;;;4991004;28;20044;-91
2020/12/20 06:45:50;;;;;;;1.02;0.60;;;23.70;87.00;;;;;;5009288;28;20038;-91
2020/12/20 06:48:29;;;;;;;2.88;0.70;;;23.70;86.40;;;;;;5025712;28;20018;-90
2020/12/20 06:50:55;;;;;;;3.83;0.80;;;23.70;86.60;;;;;;5025642;28;20041;-91
2020/12/20 06:53:52;;;;;;;2.15;0.90;;;23.70;87.00;;;;;;5025867;28;20076;-91
2020/12/20 06:56:21;;;;;;;0.95;0.60;;;23.60;87.00;;;;;;5025521;28;20049;-91
2020/12/20 06:58:52;;;;;;;2.30;0.73;;;23.60;86.90;;;;;;5025384;28;20037;-91
2020/12/20 07:01:39;;;;;;;3.30;0.93;;;23.50;87.30;;;;;;5025679;28;20178;-91
2020/12/20 07:04:13;;;;;;;3.90;0.85;;;23.50;87.10;;;;;;5025220;28;20218;-90
2020/12/20 07:06:39;;;;;;;3.80;0.90;;;23.50;87.10;;;;;;5008517;28;20034;-91
2020/12/20 07:09:08;;;;;;;3.65;0.85;;;23.50;87.10;;;;;;5030806;28;20116;-91
2020/12/20 07:11:52;;;;;;;3.47;0.90;;;23.50;86.90;;;;;;5066420;28;20020;-91
2020/12/20 07:14:21;;;;;;;3.20;0.88;;;23.50;86.80;;;;;;5049011;28;20190;-92
2020/12/20 07:16:48;;;;;;;2.42;0.75;;;23.50;86.50;;;;;;5048384;28;20025;-91
2020/12/20 07:19:23;;;;;;;3.10;0.88;;;23.50;86.30;;;;;;5048994;28;20021;-92
2020/12/20 07:21:53;;;;;;;1.27;0.52;;;23.40;85.40;;;;;;5049589;28;20040;-93
2020/12/20 07:24:30;;;;;;;2.50;0.65;;;23.50;84.90;;;;;;5065657;28;20028;-92
2020/12/20 07:27:02;;;;;;;3.72;0.90;;;23.50;84.20;;;;;;5066499;28;20035;-91
2020/12/20 07:29:31;;;;;;;1.85;0.73;;;23.50;84.50;;;;;;5049241;28;20017;-91
2020/12/20 07:32:00;;;;;;;2.30;0.70;;;23.50;84.20;;;;;;5048667;28;20021;-93
2020/12/20 07:34:27;;;;;;;3.15;0.85;;;23.40;84.70;;;;;;5048951;28;20027;-91
2020/12/20 07:36:54;;;;;;;1.65;1.00;;;23.40;84.70;;;;;;5049050;28;20082;-91
2020/12/20 07:39:22;;;;;;;1.60;1.00;;;23.40;85.90;;;;;;5048288;28;20016;-91
2020/12/20 07:41:48;;;;;;;4.43;1.33;;;23.40;86.70;;;;;;5048657;28;20039;-92
2020/12/20 07:44:15;;;;;;;1.10;0.90;;;23.30;86.90;;;;;;5066785;28;20095;-91
2020/12/20 07:46:42;;;;;;;2.35;0.70;;;23.30;87.10;;;;;;5048709;28;20075;-91
2020/12/20 07:49:23;;;;;;;5.35;0.90;;;23.30;86.70;;;;;;5048231;28;20017;-91
2020/12/20 07:51:50;;;;;;;1.58;0.70;;;23.20;86.60;;;;;;5031871;28;20036;-91
2020/12/20 07:54:17;;;;;;;2.05;0.90;;;23.20;87.10;;;;;;5048077;28;20209;-92
2020/12/20 07:56:47;;;;;;;1.80;1.10;;;23.20;87.10;;;;;;5048477;28;20021;-91
2020/12/20 07:59:16;;;;;;;2.13;0.95;;;23.10;87.50;;;;;;5047905;28;20096;-92
2020/12/20 08:01:45;;;;;;;3.03;0.88;;;23.10;87.60;;;;;;5066693;28;20025;-91
2020/12/20 08:04:21;;;;;;;1.77;0.82;;;23.10;87.10;;;;;;5048143;28;20060;-92
2020/12/20 08:06:50;;;;;;;1.13;0.70;;;23.10;86.90;;;;;;5048181;28;20165;-91
2020/12/20 08:09:22;;;;;;;2.92;1.35;;;23.00;87.00;;;;;;5065600;28;20208;-92
2020/12/20 08:11:51;;;;;;;2.65;0.90;;;23.10;87.30;;;;;;5047968;28;20136;-92
2020/12/20 08:14:20;;;;;;;1.65;1.15;;;23.00;87.10;;;;;;5047448;28;20108;-92
2020/12/20 08:16:51;;;;;;;1.13;0.73;;;23.10;86.40;;;;;;5047930;28;20028;-92
2020/12/20 08:19:22;;;;;;;1.98;0.75;;;22.90;86.40;;;;;;5054140;28;20074;-92
2020/12/20 08:22:20;;;;;;;1.17;0.73;;;22.90;86.60;;;;;;5050813;28;20017;-91
2020/12/20 08:24:51;;;;;;;0.68;0.63;;;23.00;86.90;;;;;;5068660;28;20080;-91
2020/12/20 08:27:26;;;;;;;;;;;23.00;86.70;;;;;;5050204;28;20028;-91
2020/12/20 08:29:58;;;;;;;2.60;0.90;;;23.00;86.70;;;;;;5050407;28;20129;-91
2020/12/20 08:32:34;;;;;;;1.95;0.75;;;22.90;86.40;;;;;;5049802;28;20025;-90
2020/12/20 08:35:45;;;;;;;1.45;0.98;;;22.90;86.80;;;;;;5050086;28;20061;-91
2020/12/20 08:38:19;;;;;;;1.23;0.70;;;22.80;86.30;;;;;;4973343;28;20077;-90
2020/12/20 08:40:46;;;;;;;2.70;0.80;;;22.80;86.10;;;;;;4971884;28;20054;-91
2020/12/20 08:43:18;;;;;;;2.15;0.77;;;22.80;85.90;;;;;;5028022;28;20082;-91
2020/12/20 08:45:53;;;;;;;1.42;0.70;;;22.80;85.80;;;;;;5066896;28;20040;-93
2020/12/20 08:48:20;;;;;;;1.52;0.80;;;22.80;86.00;;;;;;5068133;28;20099;-91
2020/12/20 08:50:56;;;;;;;1.88;0.70;;;22.80;85.40;;;;;;5084817;28;20048;-90
2020/12/20 08:53:24;;;;;;;2.25;0.63;;;22.80;85.60;;;;;;5067981;28;20265;-90
2020/12/20 08:55:51;;;;;;;2.40;0.70;;;22.80;85.30;;;;;;5067238;28;20033;-91
2020/12/20 08:58:19;;;;;;;2.88;0.70;;;22.80;85.00;;;;;;5066957;28;20020;-90
2020/12/20 09:00:46;;;;;;;3.17;0.80;;;22.80;84.20;;;;;;5067595;28;20070;-90
2020/12/20 09:03:13;;;;;;;1.27;0.98;;;22.80;84.50;;;;;;5067611;28;20043;-90
2020/12/20 09:05:40;;;;;;;3.25;0.90;;;22.80;84.00;;;;;;5084618;28;20025;-90
2020/12/20 09:08:07;;;;;;;0.63;0.60;;;22.70;85.00;;;;;;5085450;28;20027;-89
2020/12/20 09:10:35;;;;;;;3.65;0.85;;;22.70;84.50;;;;;;5084584;28;20062;-91
2020/12/20 09:13:07;;;;;;;1.00;0.80;;;22.70;84.40;;;;;;5067663;28;20196;-89
2020/12/20 09:15:41;;;;;;;2.50;0.80;;;22.70;84.40;;;;;;5086223;28;20028;-90
2020/12/20 09:18:25;;;;;;;0.98;0.70;;;22.70;84.20;;;;;;5067502;28;20083;-91
2020/12/20 09:20:52;;;;;;;1.77;0.60;;;22.70;84.70;;;;;;5085052;28;20017;-91
2020/12/20 09:23:28;;;;;;;1.35;0.82;;;22.70;84.20;;;;;;5085590;28;20023;-90
2020/12/20 09:26:03;;;;;;;2.72;0.77;;;22.70;84.10;;;;;;5068156;28;20028;-90
2020/12/20 09:28:32;;;;;;;3.45;1.35;;;22.70;83.60;;;;;;5051226;28;20017;-90
2020/12/20 09:31:00;;;;;;;1.65;0.70;;;22.70;83.40;;;;;;5084760;28;20020;-90
2020/12/20 09:33:29;;;;;;;1.83;0.90;;;22.70;83.10;;;;;;5067476;28;20253;-90
2020/12/20 09:35:59;;;;;;;0.85;0.60;;;22.70;82.80;;;;;;5084869;28;20032;-90
2020/12/20 09:38:47;;;;;;;1.30;0.70;;;22.70;82.90;;;;;;5067333;28;20025;-90
2020/12/20 09:41:16;;;;;;;2.03;0.70;;;22.70;82.50;;;;;;5066631;28;20055;-91
2020/12/20 09:43:44;;;;;;;1.42;0.80;;;22.70;81.60;;;;;;5066685;28;20244;-90
2020/12/20 09:46:23;;;;;;;2.17;0.60;;;22.70;81.70;;;;;;5066826;28;20208;-90
2020/12/20 09:48:50;;;;;;;0.45;0.45;;;22.70;81.90;;;;;;5066509;28;20103;-91
2020/12/20 09:51:18;;;;;;;1.33;0.82;;;22.70;82.10;;;;;;5066733;28;20012;-91
2020/12/20 09:53:45;;;;;;;2.75;0.95;;;22.70;81.60;;;;;;5066694;28;20055;-91
2020/12/20 09:56:13;;;;;;;0.85;0.77;;;22.70;81.90;;;;;;5086429;28;20032;-91
2020/12/20 09:58:40;;;;;;;1.27;0.70;;;22.70;81.30;;;;;;5071040;28;20036;-90
2020/12/20 10:01:06;;;;;;;1.17;0.55;;;22.70;81.60;;;;;;5071437;28;20046;-89
2020/12/20 10:03:33;;;;;;;3.92;0.60;;;22.70;81.40;;;;;;5070135;28;20024;-90
2020/12/20 10:06:00;;;;;;;0.93;0.60;;;22.70;80.80;;;;;;5069853;28;20028;-90
2020/12/20 10:08:28;;;;;;;1.10;0.70;;;22.70;80.60;;;;;;5070584;28;20099;-91
2020/12/20 10:10:55;;;;;;;1.33;0.85;;;22.70;80.70;;;;;;5070273;28;20058;-91
2020/12/20 10:13:23;;;;;;;0.73;0.57;;;22.80;79.60;;;;;;5088426;28;20104;-91
2020/12/20 10:15:50;;;;;;;2.15;1.38;;;22.80;79.40;;;;;;5069458;28;20020;-93
2020/12/20 10:18:16;;;;;;;1.27;0.60;;;22.90;79.50;;;;;;5069833;28;20056;-91
2020/12/20 10:20:43;;;;;;;2.65;0.80;;;23.00;79.30;;;;;;5088295;28;20024;-91
2020/12/20 10:23:10;;;;;;;1.50;0.73;;;23.00;79.00;;;;;;5070769;28;20169;-91
2020/12/20 10:25:37;;;;;;;2.20;0.75;;;23.10;78.40;;;;;;5087642;28;20150;-90
2020/12/20 10:28:03;;;;;;;2.55;0.55;;;23.10;78.20;;;;;;5070551;28;20297;-90
2020/12/20 10:30:30;;;;;;;1.15;0.68;;;23.10;77.40;;;;;;5070505;28;20301;-90
2020/12/20 10:32:57;;;;;;;1.38;0.32;;;23.00;78.00;;;;;;5070697;28;20031;-90
2020/12/20 10:35:24;;;;;;;1.83;0.60;;;23.10;78.00;;;;;;5069924;28;20017;-91
2020/12/20 10:37:52;;;;;;;1.60;0.57;;;23.10;78.00;;;;;;5070710;28;20048;-91
2020/12/20 10:40:21;;;;;;;2.63;0.77;;;23.10;77.90;;;;;;5069859;28;20016;-91
2020/12/20 10:42:47;;;;;;;2.40;0.82;;;23.10;77.60;;;;;;5087428;28;20094;-92
2020/12/20 10:45:15;;;;;;;1.23;1.10;;;23.20;78.00;;;;;;5070051;28;20027;-93
2020/12/20 10:47:42;;;;;;;3.30;1.83;;;23.20;77.30;;;;;;5069428;28;20039;-92
2020/12/20 10:50:09;;;;;;;3.03;2.20;;;23.20;77.90;;;;;;5068651;28;20297;-94
2020/12/20 10:52:36;;;;;;;2.20;1.42;;;23.30;77.50;;;;;;5068604;28;20021;-91
2020/12/20 10:55:04;;;;;;;7.25;1.75;;;23.30;78.00;;;;;;5069128;28;20017;-91
2020/12/20 10:57:31;;;;;;;7.30;1.83;;;23.30;78.80;;;;;;5069454;28;20115;-91
2020/12/20 11:00:01;;;;;;;1.83;1.00;;;23.30;79.00;;;;;;5069342;28;20058;-91
2020/12/20 11:02:29;;;;;;;5.78;1.10;;;23.30;78.60;;;;;;5071552;28;20177;-91
2020/12/20 11:04:56;;;;;;;1.63;1.00;;;23.30;78.50;;;;;;5055162;28;20029;-91
2020/12/20 11:07:23;;;;;;;1.73;0.95;;;23.30;78.60;;;;;;5089400;28;20021;-91
2020/12/20 11:09:49;;;;;;;2.72;0.93;;;23.30;78.90;;;;;;5071464;28;20031;-91
2020/12/20 11:12:26;;;;;;;2.72;1.20;;;23.30;79.40;;;;;;5071863;28;20074;-94
2020/12/20 11:18:51;;;;;;;10.93;5.30;;;23.30;80.40;;;;;;6098066;22;20016;-96
2020/12/20 11:24:33;;;;;;;19.65;11.40;;;23.30;81.20;;;;;;5401044;23;20110;-96
2020/12/20 11:27:14;;;;;;;3.75;2.33;;;23.30;81.50;;;;;;5032578;28;20044;-95
2020/12/20 11:30:04;;;;;;;2.72;1.20;;;23.30;80.00;;;;;;5032890;28;20039;-96
2020/12/20 11:32:36;;;;;;;2.05;1.33;;;23.30;81.50;;;;;;5200988;22;20037;-96
2020/12/20 11:35:05;;;;;;;2.83;1.38;;;23.40;82.30;;;;;;5069628;28;20051;-92
2020/12/20 11:37:32;;;;;;;6.40;3.13;;;23.40;81.90;;;;;;5048967;28;20033;-90
2020/12/20 11:40:07;;;;;;;3.83;1.42;;;23.50;82.10;;;;;;5048587;28;20048;-90
2020/12/20 11:42:34;;;;;;;2.50;1.23;;;23.50;81.50;;;;;;5049808;28;20074;-90
2020/12/20 11:45:01;;;;;;;2.80;1.67;;;23.70;80.40;;;;;;5048378;28;20240;-89
2020/12/20 11:47:27;;;;;;;2.53;1.33;;;23.90;81.40;;;;;;5066962;28;20028;-91
2020/12/20 11:49:55;;;;;;;1.83;1.13;;;24.10;79.00;;;;;;5048123;28;20028;-90
2020/12/20 11:52:46;;;;;;;2.05;0.80;;;24.30;79.10;;;;;;5051046;28;20066;-91
2020/12/20 11:55:17;;;;;;;2.15;0.82;;;24.50;78.30;;;;;;5050817;28;20021;-92
2020/12/20 11:57:44;;;;;;;1.95;0.60;;;24.70;77.20;;;;;;5052005;28;20021;-92
2020/12/20 12:00:12;;;;;;;2.97;0.90;;;24.90;77.20;;;;;;5047775;28;20067;-92
2020/12/20 12:02:39;;;;;;;1.83;0.77;;;25.00;77.20;;;;;;5050696;28;20028;-92
2020/12/20 12:05:26;;;;;;;2.65;0.70;;;25.20;76.20;;;;;;5052504;28;20025;-92
2020/12/20 12:07:59;;;;;;;4.53;1.40;;;25.30;76.20;;;;;;5058695;28;20020;-92
2020/12/20 12:10:45;;;;;;;2.75;1.30;;;25.50;76.20;;;;;;5060900;28;20017;-92
2020/12/20 12:13:14;;;;;;;0.98;0.80;;;25.50;74.80;;;;;;5068263;28;20021;-92
2020/12/20 12:15:56;;;;;;;1.98;0.90;;;25.40;75.40;;;;;;5056398;28;20076;-92
2020/12/20 12:22:52;;;;;;;;;;;;;;;;;;;;;
2020/12/20 12:25:45;;;;;;;0.98;0.70;;;25.00;78.20;;;;;;4941970;29;20044;-93
2020/12/20 12:31:27;;;;;;;1.40;0.80;;;25.00;78.10;;;;;;5434262;22;20063;-91
2020/12/20 12:34:27;;;;;;;3.40;0.75;;;25.00;77.90;;;;;;5075992;28;20020;-94
2020/12/20 12:38:04;;;;;;;2.58;0.82;;;24.90;78.20;;;;;;5039473;28;20025;-94
2020/12/20 12:41:19;;;;;;;1.40;1.05;;;25.10;79.20;;;;;;4973870;28;20027;-91
2020/12/20 12:44:01;;;;;;;53.03;6.47;;;25.00;78.40;;;;;;5017876;28;20043;-90
2020/12/20 12:47:18;;;;;;;5.05;1.80;;;24.80;80.90;;;;;;5095266;28;20021;-91
2020/12/20 12:49:53;;;;;;;7.30;1.30;;;24.80;82.30;;;;;;5017441;28;20050;-90
2020/12/20 12:52:25;;;;;;;5.32;1.20;;;24.80;81.10;;;;;;5073476;28;20035;-93
2020/12/20 12:58:10;;;;;;;2.30;0.90;;;24.70;80.90;;;;;;5050645;28;20028;-88
2020/12/20 13:01:33;;;;;;;4.03;1.50;;;24.60;79.90;;;;;;5079227;28;20070;-91
2020/12/20 13:05:00;;;;;;;1.83;1.15;;;24.60;79.70;;;;;;5095439;28;20033;-91
2020/12/20 13:07:38;;;;;;;4.90;1.17;;;24.90;79.90;;;;;;5067499;28;20043;-89
2020/12/20 13:11:00;;;;;;;2.35;1.15;;;25.00;77.70;;;;;;5076553;28;20036;-89
2020/12/20 13:13:33;;;;;;;2.72;1.10;;;25.10;77.20;;;;;;5062057;28;20036;-91
2020/12/20 13:16:34;;;;;;;5.38;1.30;;;25.30;76.20;;;;;;5092631;28;20020;-89
2020/12/20 13:19:21;;;;;;;3.47;1.27;;;25.40;75.30;;;;;;5035956;28;20210;-90
2020/12/20 13:28:37;;;;;;;1.90;1.00;;;25.70;77.00;;;;;;4975276;28;20034;-91
2020/12/20 13:31:08;;;;;;;3.03;1.38;;;26.00;76.60;;;;;;5010835;28;20051;-91
2020/12/20 13:33:41;;;;;;;5.85;2.10;;;26.10;76.70;;;;;;4996712;28;20323;-91
2020/12/20 13:36:27;;;;;;;5.63;1.58;;;26.30;76.10;;;;;;4996888;28;20077;-91
2020/12/20 13:38:59;;;;;;;1.83;1.10;;;26.50;75.20;;;;;;5013942;28;20026;-90
2020/12/20 13:41:26;;;;;;;3.08;1.33;;;27.60;75.80;;;;;;4976504;28;20037;-91
2020/12/20 13:43:57;;;;;;;3.55;1.30;;;27.70;71.80;;;;;;4999252;28;20363;-91
2020/12/20 13:46:36;;;;;;;2.80;0.90;;;27.60;72.90;;;;;;5002753;28;20060;-92
2020/12/20 13:49:07;;;;;;;2.38;1.10;;;27.50;73.40;;;;;;4996563;28;20065;-92
2020/12/20 13:51:58;;;;;;;5.90;1.52;;;27.60;73.70;;;;;;4978978;28;20034;-91
2020/12/20 13:54:29;;;;;;;6.75;1.58;;;27.90;74.20;;;;;;5018327;28;20038;-92
2020/12/20 13:57:05;;;;;;;6.18;1.38;;;28.00;72.90;;;;;;4999294;28;20117;-91
2020/12/20 14:02:54;;;;;;;2.95;1.40;;;27.80;76.20;;;;;;5072415;28;20070;-91
2020/12/20 14:05:33;;;;;;;3.70;1.40;;;27.90;75.90;;;;;;5070386;28;20036;-92
2020/12/20 14:08:09;;;;;;;4.88;1.48;;;27.70;75.50;;;;;;5066487;28;20035;-92
2020/12/20 14:10:36;;;;;;;4.38;1.58;;;27.50;76.90;;;;;;5069799;28;20216;-90
2020/12/20 14:13:06;;;;;;;4.18;1.70;;;27.40;77.50;;;;;;5063087;28;20036;-90